Share

Ayr Dpi Research Station, Queensland

6:03 PM EST on April 25, 2014 (GMT +1000)
Home Hill (IQUEENSL436) Elev 56 ft | 19.66 °S, 147.42 °E | Change Station

Current weather conditions updated 6 seconds ago

Partly Cloudy
Partly Cloudy
78.3 °F
Feels Like 81 °F
N
3.8
Wind Variable Wind from East
Gusts 5.4 mph
Sunrise 6:23 AM
Sunset 5:52 PM
Moon Waning Crescent

Tomorrow is forecast to be nearly the same temperature as today.

Pressure 29.89 in
Visibility 6.2 miles
Clouds Few 2500 ft
Heat Index 81 °F
Dew Point 70 °F
Humidity 75%
Rainfall 0.00 in
Snow Depth Not available.
UV 0 out of 16
Pollen Not available.
Air Quality Not available.
Flu Activity Not available.
METAR YBTL 250730Z 08010KT 9999 FEW025 26/22 Q1012 RMK DISTANT SHOWERS

More Conditions Fewer Conditions

Pressure 29.89 in
Visibility 6.2 miles
Clouds Few 2500 ft
Heat Index 81 °F
Dew Point 70 °F
Humidity 75%
Rainfall 0.00 in
Snow Depth Not available.
UV 0 out of 16
Pollen Not available.
Air Quality Not available.
Flu Activity Not available.
METAR YBTL 250730Z 08010KT 9999 FEW025 26/22 Q1012 RMK DISTANT SHOWERS

More Conditions Fewer Conditions

10-Day Weather Forecast

Almanac

Astronomy

Apr. 25, 2014 Rise Set
Actual Time 6:23 AM EST 5:52 PM EST
Civil Twilight 6:01 AM EST 6:15 PM EST
Nautical Twilight 5:35 AM EST 6:41 PM EST
Astronomical Twilight 5:09 AM EST 7:07 PM EST
Moon 2:15 AM EST 2:53 PM EST
Length of Visible Light 12h 14m
Length of Day
11h 29m
Tomorrow will be 0m 58s shorter.
Waning Crescent, 18% of the Moon is Illuminated
Today
Waning Crescent
Apr 29
New
May 6
First Quarter
May 14
Full
May 21
Last Quarter

Yesterday's Extremes

Country Highs Country Lows

Community

  • Deer in evening light
    Deer in evening light
  • Critter
    Critter
  • Jone Runs Falls
    Jone Runs Falls
  • Easter in Shenandoah National Park
    Easter in Shenandoah National Park
  • Sunset at Apalachicola Bay, Florida
    Sunset at Apalachicola Bay, Florida

WunderPhotos

Upload Photos

1,704,873 photos uploaded!

WunderBlogs® & News

Nearby

Snow Depth

Not available.

Coastal Water Temperatures

Place Temperature
No Stations Reporting

Earthquake Activity

City Distance Mag. Time & Date
No recent earthquake activity has been reported nearby.
Minimum magnitude displayed is 2.5.

Nearby Weather Stations

Station Location Temp. Heat Index Dew Point Humidity Wind Precip. Elev Updated Type
Home Hill, Home Hill 78.3 °F 81 °F 70 °F 75% East  at  3.8 mph 0.00 in / hr 56 ft 6:03 PM EST Rapid Fire
HomeHill, Home Hill 78.8 °F 82 °F 72 °F 80% ESE  at  7.0 mph 0.00 in / hr 46 ft 5:55 PM EST Normal

Show More Stations Show Fewer Stations

What do you think?

We're not finished. Please let us know what you like, what you don't like, and what you are still missing.